Time;durP1;ratioP1;P1;durP2;ratioP2;P2;SDS_P1;SDS_P2;PMS_P1;PMS_P2;Temp;Humidity;BMP_temperature;BMP_pressure;BME280_temperature;BME280_humidity;BME280_pressure;Samples;Min_cycle;Max_cycle;Signal;HPM_P1;HPM_P2
2023/09/03 00:00:38;;;;;;;51.80;24.03;;;;;;;;;;5013871;28;20033;-67
2023/09/03 00:03:03;;;;;;;56.87;24.63;;;;;;;;;;5013230;28;20359;-67
2023/09/03 00:05:28;;;;;;;65.77;27.17;;;;;;;;;;5027282;28;20052;-68
2023/09/03 00:07:54;;;;;;;69.43;26.43;;;;;;;;;;5033200;28;20030;-67
2023/09/03 00:10:20;;;;;;;63.90;26.10;;;;;;;;;;5033337;28;20033;-67
2023/09/03 00:12:45;;;;;;;67.77;26.40;;;;;;;;;;5033032;28;20036;-67
2023/09/03 00:15:10;;;;;;;76.40;28.37;;;;;;;;;;5033000;28;20042;-67
2023/09/03 00:17:35;;;;;;;78.93;29.03;;;;;;;;;;5033347;28;20036;-67
2023/09/03 00:20:01;;;;;;;80.00;29.77;;;;;;;;;;5033356;28;20061;-67
2023/09/03 00:22:27;;;;;;;83.60;30.47;;;;;;;;;;5033292;28;20043;-67
2023/09/03 00:24:52;;;;;;;95.40;32.03;;;;;;;;;;5033005;28;20093;-68
2023/09/03 00:27:17;;;;;;;84.60;30.90;;;;;;;;;;5032972;28;20077;-68
2023/09/03 00:29:43;;;;;;;94.13;32.23;;;;;;;;;;5032899;28;20022;-67
2023/09/03 00:32:08;;;;;;;91.37;31.17;;;;;;;;;;5033023;28;20100;-67
2023/09/03 00:34:33;;;;;;;92.83;32.40;;;;;;;;;;5033110;28;20029;-67
2023/09/03 00:36:59;;;;;;;98.50;34.13;;;;;;;;;;5033278;28;20497;-67
2023/09/03 00:39:24;;;;;;;97.87;33.53;;;;;;;;;;5032763;28;20075;-68
2023/09/03 00:41:49;;;;;;;95.67;33.87;;;;;;;;;;5033121;28;20049;-67
2023/09/03 00:44:15;;;;;;;98.07;33.40;;;;;;;;;;5033128;28;20026;-68
2023/09/03 00:46:43;;;;;;;78.90;29.50;;;;;;;;;;5032617;28;20018;-68
2023/09/03 00:49:12;;;;;;;72.37;27.83;;;;;;;;;;5030445;28;20064;-67
2023/09/03 00:51:38;;;;;;;76.43;29.00;;;;;;;;;;5033107;28;20492;-67
2023/09/03 00:54:03;;;;;;;76.93;29.43;;;;;;;;;;5032629;28;20018;-67
2023/09/03 00:56:32;;;;;;;93.90;31.90;;;;;;;;;;5032632;28;20108;-68
2023/09/03 00:58:59;;;;;;;92.30;32.20;;;;;;;;;;5017637;28;20541;-68
2023/09/03 01:04:10;;;;;;;106.93;33.90;;;;;;;;;;5047692;28;20407;-66
2023/09/03 01:06:35;;;;;;;112.27;35.97;;;;;;;;;;5054981;28;20052;-66
2023/09/03 01:09:00;;;;;;;121.63;37.40;;;;;;;;;;5052381;28;20041;-66
2023/09/03 01:11:26;;;;;;;107.43;34.97;;;;;;;;;;5053651;28;20071;-66
2023/09/03 01:13:56;;;;;;;96.33;31.60;;;;;;;;;;5073671;28;20020;-66
2023/09/03 01:16:41;;;;;;;71.53;27.73;;;;;;;;;;5076092;28;20024;-66
2023/09/03 01:19:28;;;;;;;65.60;25.23;;;;;;;;;;5070288;28;20029;-66
2023/09/03 01:21:57;;;;;;;58.80;23.67;;;;;;;;;;5056141;28;20013;-66
2023/09/03 01:24:41;;;;;;;44.07;20.20;;;;;;;;;;5056407;28;20526;-66
2023/09/03 01:27:13;;;;;;;76.23;28.13;;;;;;;;;;5055983;28;20032;-66
2023/09/03 01:29:41;;;;;;;93.47;32.67;;;;;;;;;;5055960;28;20028;-66
2023/09/03 01:32:06;;;;;;;88.53;31.30;;;;;;;;;;5055093;28;20017;-66
2023/09/03 01:34:32;;;;;;;108.13;34.43;;;;;;;;;;5056175;28;20082;-66
2023/09/03 01:36:58;;;;;;;115.00;36.23;;;;;;;;;;5056128;28;20021;-66
2023/09/03 01:39:23;;;;;;;126.57;39.00;;;;;;;;;;5056133;28;20055;-66
2023/09/03 01:41:48;;;;;;;116.50;37.57;;;;;;;;;;5056074;28;20373;-67
2023/09/03 01:44:14;;;;;;;101.37;34.73;;;;;;;;;;5063661;28;20021;-66
2023/09/03 01:46:48;;;;;;;69.30;26.93;;;;;;;;;;5058249;28;20005;-66
2023/09/03 01:49:25;;;;;;;70.30;25.83;;;;;;;;;;5058413;28;20123;-66
2023/09/03 01:52:09;;;;;;;79.90;29.33;;;;;;;;;;5055637;28;20019;-66
2023/09/03 01:54:38;;;;;;;86.40;29.37;;;;;;;;;;5055675;28;20024;-66
2023/09/03 01:57:03;;;;;;;89.40;31.00;;;;;;;;;;5055428;28;20492;-66
2023/09/03 01:59:49;;;;;;;98.30;31.07;;;;;;;;;;5055436;28;20013;-66
2023/09/03 02:02:14;;;;;;;87.50;29.97;;;;;;;;;;5054644;28;20026;-66
2023/09/03 02:04:40;;;;;;;90.63;30.33;;;;;;;;;;5055640;28;20025;-66
2023/09/03 02:07:05;;;;;;;116.60;35.97;;;;;;;;;;5055565;28;20017;-66
2023/09/03 02:09:31;;;;;;;118.77;36.90;;;;;;;;;;5055565;28;20087;-66
2023/09/03 02:11:57;;;;;;;114.20;38.17;;;;;;;;;;5055043;28;20032;-66
2023/09/03 02:14:22;;;;;;;131.50;43.10;;;;;;;;;;5055226;28;20041;-70
2023/09/03 02:16:47;;;;;;;125.20;43.97;;;;;;;;;;5054974;28;20071;-69
2023/09/03 02:19:12;;;;;;;138.13;45.30;;;;;;;;;;5055075;28;20025;-69
2023/09/03 02:21:37;;;;;;;158.37;48.63;;;;;;;;;;5055035;28;20016;-69
2023/09/03 02:24:03;;;;;;;169.00;51.30;;;;;;;;;;5055021;28;20036;-69
2023/09/03 02:26:28;;;;;;;148.70;46.37;;;;;;;;;;5054677;28;20028;-69
2023/09/03 02:28:53;;;;;;;122.67;40.30;;;;;;;;;;5055165;28;20028;-69
2023/09/03 02:31:19;;;;;;;156.97;48.97;;;;;;;;;;5055154;28;20458;-69
2023/09/03 02:33:44;;;;;;;157.10;47.60;;;;;;;;;;5055063;28;20515;-70
2023/09/03 02:36:09;;;;;;;179.43;50.67;;;;;;;;;;5054727;28;20377;-69
2023/09/03 02:38:34;;;;;;;159.97;49.57;;;;;;;;;;5054729;28;20516;-70
2023/09/03 02:40:59;;;;;;;140.37;46.77;;;;;;;;;;5054189;28;20021;-69
2023/09/03 02:43:25;;;;;;;144.60;48.43;;;;;;;;;;5054074;28;20024;-70
2023/09/03 02:45:51;;;;;;;129.27;47.80;;;;;;;;;;5054865;28;20031;-69
2023/09/03 02:48:16;;;;;;;130.10;47.07;;;;;;;;;;5054780;28;20029;-70
2023/09/03 02:50:42;;;;;;;138.53;47.50;;;;;;;;;;5054446;28;20101;-69
2023/09/03 02:53:07;;;;;;;155.17;49.10;;;;;;;;;;5054400;28;20029;-70
2023/09/03 02:55:33;;;;;;;139.30;46.97;;;;;;;;;;5052285;28;20134;-69
2023/09/03 02:57:59;;;;;;;134.70;47.27;;;;;;;;;;5034455;28;20024;-69
2023/09/03 03:00:24;;;;;;;130.13;46.90;;;;;;;;;;5057111;28;20028;-69
2023/09/03 03:02:50;;;;;;;136.43;48.10;;;;;;;;;;5070619;28;20045;-70
2023/09/03 03:05:15;;;;;;;138.10;49.00;;;;;;;;;;5074187;28;20036;-69
2023/09/03 03:07:44;;;;;;;129.60;49.43;;;;;;;;;;5059496;28;20032;-69
2023/09/03 03:10:09;;;;;;;120.67;46.43;;;;;;;;;;5054184;28;20071;-69
2023/09/03 03:12:35;;;;;;;110.27;44.93;;;;;;;;;;5054364;28;20050;-70
2023/09/03 03:15:00;;;;;;;111.27;42.80;;;;;;;;;;5053923;28;20053;-69
2023/09/03 03:17:26;;;;;;;121.20;43.97;;;;;;;;;;5053963;28;20040;-70
2023/09/03 03:19:51;;;;;;;103.90;40.70;;;;;;;;;;5054211;28;20039;-70
2023/09/03 03:22:16;;;;;;;107.83;41.20;;;;;;;;;;5054127;28;20028;-69
2023/09/03 03:24:41;;;;;;;111.90;42.43;;;;;;;;;;5053915;28;20033;-65
2023/09/03 03:27:07;;;;;;;102.33;39.97;;;;;;;;;;5054084;28;20389;-66
2023/09/03 03:29:32;;;;;;;108.80;41.37;;;;;;;;;;5050750;28;20025;-65
2023/09/03 03:31:58;;;;;;;100.00;38.90;;;;;;;;;;5054026;28;20100;-65
2023/09/03 03:34:25;;;;;;;110.67;41.87;;;;;;;;;;5053927;28;20436;-65
2023/09/03 03:36:50;;;;;;;99.30;37.83;;;;;;;;;;5053033;28;20021;-65
2023/09/03 03:39:15;;;;;;;114.87;40.40;;;;;;;;;;5053872;28;20078;-66
2023/09/03 03:41:40;;;;;;;101.43;37.00;;;;;;;;;;5053463;28;20036;-65
2023/09/03 03:44:06;;;;;;;105.10;38.67;;;;;;;;;;5060937;28;20073;-65
2023/09/03 03:46:31;;;;;;;96.33;36.27;;;;;;;;;;5073483;28;20035;-65
2023/09/03 03:48:56;;;;;;;98.03;35.67;;;;;;;;;;5073673;28;20020;-65
2023/09/03 03:51:21;;;;;;;85.70;34.67;;;;;;;;;;5061595;28;20024;-65
2023/09/03 03:53:47;;;;;;;84.50;34.60;;;;;;;;;;5053232;28;20025;-65
2023/09/03 03:56:12;;;;;;;95.07;34.30;;;;;;;;;;5055573;28;20090;-65
2023/09/03 03:58:39;;;;;;;92.70;37.20;;;;;;;;;;5053577;28;20029;-65
2023/09/03 04:01:15;;;;;;;138.13;44.57;;;;;;;;;;5053062;28;20021;-65
2023/09/03 04:03:40;;;;;;;137.97;42.43;;;;;;;;;;5052929;28;20449;-66
2023/09/03 04:06:05;;;;;;;143.03;46.77;;;;;;;;;;5053451;28;20049;-65
2023/09/03 04:08:32;;;;;;;157.60;46.77;;;;;;;;;;5052964;28;20082;-65
2023/09/03 04:10:58;;;;;;;266.83;52.37;;;;;;;;;;5053024;28;20049;-65
2023/09/03 04:13:24;;;;;;;284.47;52.33;;;;;;;;;;5053368;28;20025;-66
2023/09/03 04:15:49;;;;;;;354.83;51.20;;;;;;;;;;5053000;28;20037;-65
2023/09/03 04:18:14;;;;;;;225.07;48.70;;;;;;;;;;5053292;28;20443;-65
2023/09/03 04:20:40;;;;;;;198.30;48.00;;;;;;;;;;5053228;28;20032;-66
2023/09/03 04:23:05;;;;;;;188.90;50.23;;;;;;;;;;5053020;28;20017;-65
2023/09/03 04:25:30;;;;;;;181.40;50.10;;;;;;;;;;5053182;28;20021;-65
2023/09/03 04:27:55;;;;;;;205.47;51.90;;;;;;;;;;5052957;28;20059;-66
2023/09/03 04:30:20;;;;;;;259.53;56.70;;;;;;;;;;5052903;28;20021;-65
2023/09/03 04:32:46;;;;;;;210.83;56.03;;;;;;;;;;5053113;28;20060;-66
2023/09/03 04:35:11;;;;;;;220.20;57.03;;;;;;;;;;5053132;28;20083;-66
2023/09/03 04:37:36;;;;;;;230.53;60.43;;;;;;;;;;5053397;28;20028;-65
2023/09/03 04:40:01;;;;;;;249.27;64.60;;;;;;;;;;5053068;28;20032;-65
2023/09/03 04:42:27;;;;;;;233.03;64.80;;;;;;;;;;5052662;28;20021;-65
2023/09/03 04:44:52;;;;;;;232.23;64.63;;;;;;;;;;5052681;28;20032;-65
2023/09/03 04:47:17;;;;;;;281.50;67.73;;;;;;;;;;5050595;28;20012;-66
2023/09/03 04:49:42;;;;;;;221.70;63.43;;;;;;;;;;5055337;28;20021;-65
2023/09/03 04:52:08;;;;;;;255.73;67.63;;;;;;;;;;5056793;28;20066;-65
2023/09/03 04:54:34;;;;;;;230.33;67.40;;;;;;;;;;5056436;28;20024;-66
2023/09/03 04:56:59;;;;;;;222.00;65.40;;;;;;;;;;5056803;28;20017;-65
2023/09/03 04:59:26;;;;;;;211.40;64.17;;;;;;;;;;5069754;28;20062;-66
2023/09/03 05:01:52;;;;;;;182.50;60.50;;;;;;;;;;5076433;28;20012;-66
2023/09/03 05:04:17;;;;;;;223.47;64.23;;;;;;;;;;5076321;28;20117;-66
2023/09/03 05:06:42;;;;;;;191.70;61.70;;;;;;;;;;5076419;28;20021;-66
2023/09/03 05:09:08;;;;;;;139.77;47.87;;;;;;;;;;5059663;28;20017;-65
2023/09/03 05:11:33;;;;;;;138.07;47.80;;;;;;;;;;5058447;28;20032;-66
2023/09/03 05:13:59;;;;;;;129.47;43.97;;;;;;;;;;5075876;28;20024;-65
2023/09/03 05:16:26;;;;;;;137.03;44.53;;;;;;;;;;5076207;28;20028;-65
2023/09/03 05:18:52;;;;;;;136.33;46.40;;;;;;;;;;5076138;28;20077;-65
2023/09/03 05:21:17;;;;;;;144.60;48.77;;;;;;;;;;5076438;28;20020;-65
2023/09/03 05:23:42;;;;;;;156.20;51.17;;;;;;;;;;5076401;28;20024;-65
2023/09/03 05:26:07;;;;;;;151.80;50.47;;;;;;;;;;5076098;28;20443;-65
2023/09/03 05:28:33;;;;;;;143.27;48.73;;;;;;;;;;5076385;28;20111;-65
2023/09/03 05:30:59;;;;;;;138.50;50.10;;;;;;;;;;5075975;28;20024;-65
2023/09/03 05:33:24;;;;;;;139.53;51.27;;;;;;;;;;5075910;28;20024;-65
2023/09/03 05:35:49;;;;;;;131.57;47.60;;;;;;;;;;5058645;28;20033;-66
2023/09/03 05:38:14;;;;;;;127.80;48.90;;;;;;;;;;5071467;28;20024;-66
2023/09/03 05:40:40;;;;;;;126.00;48.30;;;;;;;;;;5076117;28;20372;-65
2023/09/03 05:43:05;;;;;;;128.23;46.77;;;;;;;;;;5076116;28;20415;-69
2023/09/03 05:45:31;;;;;;;117.90;46.53;;;;;;;;;;5072512;28;20028;-65
2023/09/03 05:47:56;;;;;;;110.47;45.63;;;;;;;;;;5075893;28;20025;-65
2023/09/03 05:50:21;;;;;;;100.33;41.60;;;;;;;;;;5075962;28;20107;-65
2023/09/03 05:52:46;;;;;;;81.97;37.40;;;;;;;;;;5059914;28;20036;-66
2023/09/03 05:55:12;;;;;;;72.93;34.73;;;;;;;;;;5055491;28;20029;-65
2023/09/03 05:57:37;;;;;;;74.40;34.87;;;;;;;;;;5058276;28;20034;-66
2023/09/03 06:00:03;;;;;;;72.60;35.97;;;;;;;;;;5054849;28;20029;-66
2023/09/03 06:02:28;;;;;;;73.37;36.30;;;;;;;;;;5054869;28;20045;-65
2023/09/03 06:04:53;;;;;;;67.60;34.23;;;;;;;;;;5055420;28;20021;-65
2023/09/03 06:07:19;;;;;;;62.20;32.03;;;;;;;;;;5055099;28;20033;-65
2023/09/03 06:09:45;;;;;;;60.53;31.23;;;;;;;;;;5055347;28;20028;-65
2023/09/03 06:12:10;;;;;;;59.63;31.17;;;;;;;;;;5054906;28;20032;-65
2023/09/03 06:14:35;;;;;;;50.83;29.37;;;;;;;;;;5055150;28;20036;-65
2023/09/03 06:17:02;;;;;;;45.67;26.93;;;;;;;;;;5055403;28;20021;-65
2023/09/03 06:19:27;;;;;;;42.33;24.67;;;;;;;;;;5055428;28;20025;-65
2023/09/03 06:21:53;;;;;;;41.47;24.43;;;;;;;;;;5055354;28;20096;-65
2023/09/03 06:24:18;;;;;;;35.67;23.20;;;;;;;;;;5055316;28;20033;-65
2023/09/03 06:26:43;;;;;;;30.90;20.83;;;;;;;;;;5055036;28;20028;-65
2023/09/03 06:29:08;;;;;;;25.60;17.70;;;;;;;;;;5055246;28;20024;-65
2023/09/03 06:31:33;;;;;;;20.60;15.63;;;;;;;;;;5054897;28;20032;-64
2023/09/03 06:33:59;;;;;;;19.98;11.48;;;;;;;;;;5054836;28;20025;-65
2023/09/03 06:36:25;;;;;;;12.23;9.75;;;;;;;;;;5054652;28;20025;-65
2023/09/03 06:38:50;;;;;;;9.85;7.63;;;;;;;;;;5054957;28;20044;-65
2023/09/03 06:41:15;;;;;;;11.07;6.40;;;;;;;;;;5053972;28;20428;-68
2023/09/03 06:43:40;;;;;;;10.85;6.60;;;;;;;;;;5054906;28;20025;-65
2023/09/03 06:46:07;;;;;;;11.13;6.50;;;;;;;;;;5054891;28;20465;-65
2023/09/03 06:48:32;;;;;;;8.40;5.82;;;;;;;;;;5054125;28;20031;-65
2023/09/03 06:50:58;;;;;;;8.43;6.13;;;;;;;;;;5054828;28;20033;-65
2023/09/03 06:53:23;;;;;;;9.52;6.20;;;;;;;;;;5052282;28;20036;-66
2023/09/03 06:55:48;;;;;;;8.10;6.18;;;;;;;;;;5051823;28;20024;-66
2023/09/03 06:58:13;;;;;;;9.60;6.22;;;;;;;;;;5054367;28;20101;-65
2023/09/03 07:00:39;;;;;;;9.95;6.10;;;;;;;;;;5047843;28;20021;-65
2023/09/03 07:03:04;;;;;;;7.88;5.75;;;;;;;;;;5034204;28;20119;-65
2023/09/03 07:05:29;;;;;;;9.10;6.07;;;;;;;;;;5041234;28;20071;-69
2023/09/03 07:07:56;;;;;;;9.05;6.20;;;;;;;;;;5054231;28;20495;-69
2023/09/03 07:10:21;;;;;;;8.02;5.80;;;;;;;;;;5057851;28;20115;-69
2023/09/03 07:12:47;;;;;;;10.48;5.65;;;;;;;;;;5052852;28;20532;-69
2023/09/03 07:15:12;;;;;;;7.90;4.93;;;;;;;;;;5034649;28;20068;-69
2023/09/03 07:17:37;;;;;;;7.38;5.18;;;;;;;;;;5046442;28;20025;-69
2023/09/03 07:20:03;;;;;;;7.20;4.60;;;;;;;;;;5052700;28;20074;-69
2023/09/03 07:22:28;;;;;;;7.65;4.68;;;;;;;;;;5052063;28;20031;-69
2023/09/03 07:24:53;;;;;;;5.20;4.05;;;;;;;;;;5044598;28;20032;-69
2023/09/03 07:27:18;;;;;;;6.85;3.92;;;;;;;;;;5046594;28;20020;-69
2023/09/03 07:29:44;;;;;;;5.90;3.53;;;;;;;;;;5053679;28;20049;-70
2023/09/03 07:32:09;;;;;;;5.65;3.60;;;;;;;;;;5053720;28;20025;-69
2023/09/03 07:34:34;;;;;;;7.68;3.88;;;;;;;;;;5052334;28;20024;-69
2023/09/03 07:36:59;;;;;;;6.72;3.70;;;;;;;;;;5053886;28;20070;-69
2023/09/03 07:39:24;;;;;;;6.88;3.88;;;;;;;;;;5066982;28;20095;-69
2023/09/03 07:41:50;;;;;;;7.60;3.65;;;;;;;;;;5053519;28;20021;-69
2023/09/03 07:44:15;;;;;;;9.38;3.90;;;;;;;;;;5052397;28;20036;-69
2023/09/03 07:46:40;;;;;;;6.30;3.65;;;;;;;;;;5052284;28;20025;-69
2023/09/03 07:49:05;;;;;;;8.15;3.40;;;;;;;;;;5049592;28;20053;-69
2023/09/03 07:51:31;;;;;;;8.60;3.20;;;;;;;;;;5051863;28;20060;-69
2023/09/03 07:53:56;;;;;;;6.72;3.10;;;;;;;;;;5052749;28;20028;-69
2023/09/03 07:56:21;;;;;;;6.75;2.92;;;;;;;;;;5050840;28;20035;-69
2023/09/03 07:58:47;;;;;;;5.68;2.83;;;;;;;;;;5052022;28;20095;-70
2023/09/03 08:01:14;;;;;;;7.55;2.90;;;;;;;;;;5052885;28;20017;-70
2023/09/03 08:03:40;;;;;;;5.93;2.88;;;;;;;;;;5053781;28;20048;-69
2023/09/03 08:06:06;;;;;;;9.18;2.80;;;;;;;;;;5052328;28;20492;-69
2023/09/03 08:08:31;;;;;;;5.65;2.67;;;;;;;;;;5051340;28;20021;-69
2023/09/03 08:10:57;;;;;;;5.55;2.80;;;;;;;;;;5043725;28;20021;-70
2023/09/03 08:13:22;;;;;;;5.78;2.53;;;;;;;;;;5043552;28;20064;-69
2023/09/03 08:15:48;;;;;;;6.07;2.58;;;;;;;;;;5043877;28;20056;-71
2023/09/03 08:18:14;;;;;;;4.85;2.90;;;;;;;;;;5045864;28;20483;-72
2023/09/03 08:20:39;;;;;;;6.05;3.10;;;;;;;;;;5052391;28;20023;-72
2023/09/03 08:23:04;;;;;;;4.78;2.92;;;;;;;;;;5052134;28;20096;-72
2023/09/03 08:25:29;;;;;;;5.15;3.05;;;;;;;;;;5052543;28;20469;-72
2023/09/03 08:27:55;;;;;;;5.88;2.80;;;;;;;;;;5052497;28;20017;-72
2023/09/03 08:30:20;;;;;;;4.88;2.53;;;;;;;;;;5052461;28;20087;-73
2023/09/03 08:32:45;;;;;;;6.20;2.72;;;;;;;;;;5052439;28;20024;-72
2023/09/03 08:35:11;;;;;;;5.05;2.70;;;;;;;;;;5052257;28;20425;-73
2023/09/03 08:37:36;;;;;;;5.53;2.95;;;;;;;;;;5052629;28;20024;-72
2023/09/03 08:40:01;;;;;;;6.15;2.80;;;;;;;;;;5052725;28;20071;-72
2023/09/03 08:42:28;;;;;;;3.38;1.90;;;;;;;;;;5052582;28;20483;-73
2023/09/03 08:44:55;;;;;;;5.45;2.95;;;;;;;;;;5052291;28;20103;-72
2023/09/03 08:47:21;;;;;;;4.82;2.70;;;;;;;;;;5052728;28;20389;-72
2023/09/03 08:49:46;;;;;;;6.20;2.88;;;;;;;;;;5052251;28;20025;-72
2023/09/03 08:52:12;;;;;;;4.95;2.58;;;;;;;;;;5062666;28;20028;-72
2023/09/03 08:54:38;;;;;;;4.68;2.30;;;;;;;;;;5066525;28;20071;-73
2023/09/03 08:57:05;;;;;;;4.97;2.40;;;;;;;;;;5052760;28;20502;-73
2023/09/03 08:59:31;;;;;;;5.05;2.40;;;;;;;;;;5052205;28;20017;-72
2023/09/03 09:01:57;;;;;;;5.05;2.30;;;;;;;;;;5052745;28;20104;-73
2023/09/03 09:04:23;;;;;;;3.05;1.33;;;;;;;;;;5052055;28;20103;-72
2023/09/03 09:06:48;;;;;;;4.07;2.00;;;;;;;;;;5052557;28;20021;-71
2023/09/03 09:09:14;;;;;;;4.72;2.50;;;;;;;;;;5052172;28;20419;-72
2023/09/03 09:11:41;;;;;;;4.93;2.65;;;;;;;;;;5052195;28;20104;-72
2023/09/03 09:14:27;;;;;;;5.88;2.75;;;;;;;;;;5051997;28;20024;-72
2023/09/03 09:16:52;;;;;;;5.60;3.03;;;;;;;;;;5048024;28;20044;-72
2023/09/03 09:19:18;;;;;;;7.32;3.10;;;;;;;;;;5061173;28;20025;-72
2023/09/03 09:21:43;;;;;;;6.25;3.53;;;;;;;;;;5053204;28;20025;-72
2023/09/03 09:24:09;;;;;;;5.93;3.88;;;;;;;;;;5052076;28;20028;-65
2023/09/03 09:26:34;;;;;;;6.43;3.85;;;;;;;;;;5052034;28;20099;-66
2023/09/03 09:29:03;;;;;;;6.25;3.88;;;;;;;;;;5052074;28;20491;-65
2023/09/03 09:31:29;;;;;;;5.25;2.85;;;;;;;;;;5054220;28;20021;-66
2023/09/03 09:33:55;;;;;;;5.57;2.83;;;;;;;;;;5051709;28;20092;-65
2023/09/03 09:36:20;;;;;;;5.82;3.45;;;;;;;;;;5055075;28;20580;-65
2023/09/03 09:38:45;;;;;;;7.38;3.40;;;;;;;;;;5055558;28;20385;-65
2023/09/03 09:41:21;;;;;;;5.63;3.25;;;;;;;;;;5058813;28;20060;-65
2023/09/03 09:43:46;;;;;;;7.47;3.50;;;;;;;;;;5053258;28;20469;-65
2023/09/03 09:46:24;;;;;;;5.15;2.70;;;;;;;;;;5056120;28;20070;-66
2023/09/03 09:48:59;;;;;;;5.68;2.90;;;;;;;;;;5052836;28;20082;-66
2023/09/03 09:51:25;;;;;;;6.40;3.05;;;;;;;;;;5053537;28;20036;-66
2023/09/03 09:54:00;;;;;;;5.97;3.60;;;;;;;;;;5054699;28;20024;-66
2023/09/03 09:56:35;;;;;;;4.97;3.10;;;;;;;;;;5054180;28;20024;-66
2023/09/03 09:59:01;;;;;;;6.35;3.10;;;;;;;;;;5055697;28;20706;-65
2023/09/03 10:01:40;;;;;;;6.80;3.30;;;;;;;;;;5052443;28;20021;-66
2023/09/03 10:04:05;;;;;;;6.80;2.90;;;;;;;;;;5053860;28;20110;-65
2023/09/03 10:06:32;;;;;;;5.63;2.45;;;;;;;;;;5054095;28;20028;-65
2023/09/03 10:08:57;;;;;;;5.85;2.50;;;;;;;;;;5048763;28;20024;-65
2023/09/03 10:11:22;;;;;;;5.35;2.97;;;;;;;;;;5055073;28;20075;-65
2023/09/03 10:13:48;;;;;;;6.38;2.83;;;;;;;;;;5055379;28;20032;-66
2023/09/03 10:16:15;;;;;;;5.93;3.13;;;;;;;;;;5054968;28;20029;-66
2023/09/03 10:18:44;;;;;;;4.97;3.00;;;;;;;;;;5055063;28;20009;-66
2023/09/03 10:21:10;;;;;;;4.88;2.70;;;;;;;;;;5054491;28;20025;-65
2023/09/03 10:23:54;;;;;;;4.97;2.53;;;;;;;;;;5054713;28;20024;-66
2023/09/03 10:26:26;;;;;;;5.45;2.67;;;;;;;;;;5055327;28;20489;-66
2023/09/03 10:28:55;;;;;;;7.18;4.07;;;;;;;;;;5054886;28;20024;-65
2023/09/03 10:31:21;;;;;;;5.28;3.38;;;;;;;;;;5054984;28;20017;-66
2023/09/03 10:33:46;;;;;;;6.32;3.63;;;;;;;;;;5055214;28;20033;-66
2023/09/03 10:36:13;;;;;;;6.80;3.35;;;;;;;;;;5053055;28;20481;-66
2023/09/03 10:38:38;;;;;;;6.20;2.95;;;;;;;;;;5039143;28;20041;-66
2023/09/03 10:41:17;;;;;;;4.60;2.88;;;;;;;;;;5048938;28;20415;-67
2023/09/03 10:43:43;;;;;;;3.97;2.40;;;;;;;;;;5053263;28;20021;-66
2023/09/03 10:46:08;;;;;;;5.00;3.15;;;;;;;;;;5054556;28;20496;-66
2023/09/03 10:48:36;;;;;;;5.05;2.83;;;;;;;;;;5054649;28;20044;-67
2023/09/03 10:51:02;;;;;;;5.78;2.78;;;;;;;;;;5049300;28;20024;-67
2023/09/03 10:53:38;;;;;;;4.95;2.13;;;;;;;;;;5053942;28;20028;-66
2023/09/03 10:56:12;;;;;;;5.50;2.95;;;;;;;;;;5054088;28;20036;-66
2023/09/03 10:58:54;;;;;;;3.83;2.10;;;;;;;;;;5053129;28;20362;-66
2023/09/03 11:01:20;;;;;;;3.33;1.95;;;;;;;;;;5034419;28;20022;-66
2023/09/03 11:03:48;;;;;;;5.57;2.10;;;;;;;;;;5046882;28;20049;-67
2023/09/03 11:06:21;;;;;;;4.53;2.30;;;;;;;;;;5054205;28;20362;-67
2023/09/03 11:08:47;;;;;;;5.65;2.15;;;;;;;;;;5054463;28;20025;-66
2023/09/03 11:11:18;;;;;;;5.85;2.50;;;;;;;;;;5054139;28;20028;-66
2023/09/03 11:13:47;;;;;;;6.93;3.15;;;;;;;;;;5056860;28;20542;-66
2023/09/03 11:16:13;;;;;;;5.50;2.65;;;;;;;;;;5054024;28;20504;-66
2023/09/03 11:18:38;;;;;;;4.18;2.15;;;;;;;;;;5056254;28;20052;-66
2023/09/03 11:21:03;;;;;;;5.50;2.45;;;;;;;;;;5053602;28;20024;-66
2023/09/03 11:23:30;;;;;;;5.38;2.13;;;;;;;;;;5051869;28;20024;-67
2023/09/03 11:25:55;;;;;;;4.75;2.40;;;;;;;;;;5053020;28;20469;-67
2023/09/03 11:28:21;;;;;;;4.78;2.40;;;;;;;;;;5047595;28;20078;-66
2023/09/03 11:30:46;;;;;;;5.07;2.03;;;;;;;;;;5048238;28;20441;-66
2023/09/03 11:33:24;;;;;;;5.05;2.50;;;;;;;;;;5042486;28;20033;-66
2023/09/03 11:35:50;;;;;;;4.15;2.30;;;;;;;;;;5046238;28;20025;-66
2023/09/03 11:38:15;;;;;;;5.03;2.28;;;;;;;;;;5055990;28;20008;-67
2023/09/03 11:40:41;;;;;;;4.00;1.75;;;;;;;;;;5049956;28;20080;-66
2023/09/03 11:43:10;;;;;;;4.03;1.80;;;;;;;;;;5045759;28;20021;-67
2023/09/03 11:45:35;;;;;;;4.75;1.92;;;;;;;;;;5048365;28;20029;-72
2023/09/03 11:48:02;;;;;;;5.20;2.00;;;;;;;;;;5052872;28;20024;-73
2023/09/03 11:50:27;;;;;;;4.03;1.90;;;;;;;;;;5047665;28;20053;-72
2023/09/03 11:52:58;;;;;;;4.15;1.90;;;;;;;;;;5045565;28;20056;-72
2023/09/03 11:55:26;;;;;;;3.50;1.67;;;;;;;;;;5052461;28;20057;-72
2023/09/03 11:57:52;;;;;;;4.40;1.60;;;;;;;;;;5052086;28;20129;-72
2023/09/03 12:00:20;;;;;;;4.32;2.22;;;;;;;;;;5048519;28;20096;-73
2023/09/03 12:02:45;;;;;;;4.43;1.80;;;;;;;;;;5046917;28;20095;-73
2023/09/03 12:05:12;;;;;;;4.70;1.65;;;;;;;;;;5049138;28;20048;-73
2023/09/03 12:07:37;;;;;;;3.65;1.45;;;;;;;;;;5047188;28;20488;-73
2023/09/03 12:10:03;;;;;;;4.05;1.90;;;;;;;;;;5049056;28;20024;-73
2023/09/03 12:12:28;;;;;;;3.17;1.75;;;;;;;;;;5046190;28;20613;-73
2023/09/03 12:14:53;;;;;;;4.45;1.95;;;;;;;;;;5040672;28;20041;-71
2023/09/03 12:17:28;;;;;;;4.25;1.60;;;;;;;;;;5046337;28;20021;-73
2023/09/03 12:19:54;;;;;;;3.40;1.33;;;;;;;;;;5045567;28;20096;-73
2023/09/03 12:22:20;;;;;;;3.95;1.45;;;;;;;;;;5040008;28;20079;-73
2023/09/03 12:24:49;;;;;;;4.78;1.38;;;;;;;;;;5046505;28;20017;-72
2023/09/03 12:27:14;;;;;;;3.33;1.30;;;;;;;;;;5046326;28;20013;-73
2023/09/03 12:29:40;;;;;;;4.88;1.73;;;;;;;;;;5044600;28;20070;-73
2023/09/03 12:32:06;;;;;;;3.30;1.20;;;;;;;;;;5036684;28;20035;-72
2023/09/03 12:34:39;;;;;;;4.10;1.50;;;;;;;;;;5044505;28;20293;-73
2023/09/03 12:37:04;;;;;;;3.65;1.60;;;;;;;;;;5037889;28;20028;-73
2023/09/03 12:39:31;;;;;;;4.07;1.70;;;;;;;;;;5052253;28;20013;-73
2023/09/03 12:41:57;;;;;;;4.60;1.67;;;;;;;;;;5051387;28;20017;-73
2023/09/03 12:44:22;;;;;;;5.63;1.58;;;;;;;;;;5052690;28;20049;-72
2023/09/03 12:46:48;;;;;;;4.55;1.58;;;;;;;;;;5049729;28;20381;-73
2023/09/03 12:49:13;;;;;;;4.13;1.60;;;;;;;;;;5047862;28;20029;-73
2023/09/03 12:51:39;;;;;;;8.88;1.45;;;;;;;;;;5046629;28;20021;-72
2023/09/03 12:54:05;;;;;;;3.35;1.55;;;;;;;;;;5051406;28;20049;-72
2023/09/03 12:56:31;;;;;;;2.92;1.13;;;;;;;;;;5052904;28;20067;-70
2023/09/03 12:58:57;;;;;;;4.50;1.20;;;;;;;;;;5040935;28;20079;-70
2023/09/03 13:01:22;;;;;;;4.18;1.23;;;;;;;;;;5050204;28;20112;-70
2023/09/03 13:03:47;;;;;;;4.13;1.10;;;;;;;;;;5051577;28;20567;-69
2023/09/03 13:06:13;;;;;;;5.03;1.38;;;;;;;;;;5055196;28;20478;-69
2023/09/03 13:08:39;;;;;;;3.95;1.00;;;;;;;;;;5052794;28;20048;-69
2023/09/03 13:11:04;;;;;;;3.50;1.20;;;;;;;;;;5055412;28;20198;-68
2023/09/03 13:13:29;;;;;;;2.30;1.00;;;;;;;;;;5056155;28;20025;-67
2023/09/03 13:15:54;;;;;;;3.50;1.23;;;;;;;;;;5054763;28;20033;-69
2023/09/03 13:18:20;;;;;;;3.97;1.50;;;;;;;;;;5045607;28;20109;-68
2023/09/03 13:20:45;;;;;;;4.20;1.40;;;;;;;;;;5046773;28;20029;-68
2023/09/03 13:23:11;;;;;;;3.95;1.30;;;;;;;;;;5058277;28;20071;-68
2023/09/03 13:25:37;;;;;;;2.85;1.20;;;;;;;;;;5055184;28;20021;-68
2023/09/03 13:28:03;;;;;;;3.70;1.35;;;;;;;;;;5056366;28;20021;-68
2023/09/03 13:30:29;;;;;;;4.03;1.25;;;;;;;;;;5056312;28;20423;-68
2023/09/03 13:32:54;;;;;;;3.65;1.40;;;;;;;;;;5056230;28;20529;-68
2023/09/03 13:35:19;;;;;;;2.72;1.00;;;;;;;;;;5057683;28;20384;-68
2023/09/03 13:37:44;;;;;;;2.40;1.13;;;;;;;;;;5052490;28;20515;-69
2023/09/03 13:40:10;;;;;;;3.13;1.10;;;;;;;;;;5053165;28;20017;-70
2023/09/03 13:42:36;;;;;;;4.55;1.10;;;;;;;;;;5053169;28;20024;-69
2023/09/03 13:45:01;;;;;;;2.85;1.08;;;;;;;;;;5055356;28;20033;-68
2023/09/03 13:47:26;;;;;;;2.47;1.10;;;;;;;;;;5064026;28;20027;-69
2023/09/03 13:49:52;;;;;;;5.50;1.45;;;;;;;;;;5062719;28;20032;-70
2023/09/03 13:52:17;;;;;;;3.10;1.00;;;;;;;;;;5057206;28;20092;-69
2023/09/03 13:54:42;;;;;;;2.90;1.10;;;;;;;;;;5054836;28;20529;-69
2023/09/03 13:57:07;;;;;;;2.78;1.10;;;;;;;;;;5055701;28;20078;-70
2023/09/03 13:59:33;;;;;;;2.85;1.17;;;;;;;;;;5054967;28;20071;-69
2023/09/03 14:01:58;;;;;;;2.47;1.00;;;;;;;;;;5053951;28;20094;-71
2023/09/03 14:04:24;;;;;;;3.10;1.00;;;;;;;;;;5055213;28;20021;-72
2023/09/03 14:06:49;;;;;;;3.80;1.00;;;;;;;;;;5055312;28;20473;-69
2023/09/03 14:09:16;;;;;;;3.03;1.10;;;;;;;;;;5054446;28;20465;-69
2023/09/03 14:11:42;;;;;;;3.75;1.35;;;;;;;;;;5055487;28;20537;-68
2023/09/03 14:14:07;;;;;;;3.25;0.90;;;;;;;;;;5054839;28;20108;-68
2023/09/03 14:16:32;;;;;;;3.75;1.20;;;;;;;;;;5051880;28;20083;-68
2023/09/03 14:18:58;;;;;;;3.40;1.00;;;;;;;;;;5054775;28;20021;-67
2023/09/03 14:21:23;;;;;;;2.15;0.95;;;;;;;;;;5054332;28;20461;-69
2023/09/03 14:23:48;;;;;;;5.25;1.08;;;;;;;;;;5052303;28;20469;-69
2023/09/03 14:26:14;;;;;;;3.67;1.00;;;;;;;;;;5055926;28;20095;-69